Pagina principale
METAR-TAF:

METAR-TAF

Aeroporti :

Aeroporto di Majuro

Majuro, Isole Marshall

latitudine: 07-04N, longitudine: 171-17E, altezza: 2 m

Osservazione

Il bollettino è stato emesso 51 minuti fa, alle 04:55 UTC
Vento 12 kt da est/nord-est
Temperature 31°C
Umidità 71%
Pressione 1010 hPa
Visibilità: 22.5 km
Poco nuvoloso ad un'altezza di 1500 ft
Nubi sparse ad un'altezza di 12000 ft
Cielo coperto ad un'altezza di 30000 ft

METAR: PKMJ 180455Z 06012KT 14SM FEW015 SCT120 OVC300 31/25 A2983

Ora: 17:46 (05:46 UTC)

Previsione

Il bollettino è stato emesso 7 minuti fa, alle 05:39 UTC
Previsione valida dal 18 alle 06 UTC al 19 alle 06 UTC
Vento 11 kt da est
Visibilità: 10 km
Poco nuvoloso ad un'altezza di 1600 ft
Nubi sparse ad un'altezza di 5000 ft
rovesci nelle vicinanze

TAF: PKMJ 180539Z 1806/1906 09011KT P6SM VCSH FEW016 SCT050

Osservazioni e previsioni meteorologiche di più di 4000 aeroporti (messaggi METAR e TAF).

Le stazioni disponibili sono rappresentate dai dischi gialli e rossi sulla carta.

Puntare il mouse per vedere il nome della stazione.

Clicca sopra per visualizzare le osservazioni e previsioni meteorologiche.

Per cambiare la mappa : fare clic sui pulsanti verdi con una croce nera per ingrandire, il pulsante verde con un trattino per diminuire, o sulla freccia verde per le mappe adiacenti.


METAR-TAF: